createdAt,value
2019-05-11T00:10:30.483Z,69.00
2019-05-11T00:25:38.258Z,68.63
2019-05-11T00:40:46.161Z,68.39
2019-05-11T00:55:53.331Z,68.45
2019-05-11T01:11:02.561Z,68.86
2019-05-11T01:26:10.404Z,69.41
2019-05-11T01:41:18.812Z,70.56
2019-05-11T01:56:25.827Z,71.04
2019-05-11T02:11:33.710Z,70.24
2019-05-11T02:26:41.211Z,69.98
2019-05-11T02:41:49.037Z,69.76
2019-05-11T02:56:57.239Z,69.73
2019-05-11T03:12:04.246Z,69.70
2019-05-11T03:27:12.325Z,69.43
2019-05-11T03:42:21.052Z,69.68
2019-05-11T03:57:28.064Z,69.91
2019-05-11T04:12:35.812Z,70.26
2019-05-11T04:27:45.292Z,70.70
2019-05-11T04:42:55.747Z,68.48
2019-05-11T04:58:01.123Z,68.07
2019-05-11T05:13:10.804Z,67.88
2019-05-11T05:28:17.902Z,67.74
2019-05-11T05:43:28.343Z,67.99
2019-05-11T05:58:33.194Z,67.46
2019-05-11T06:13:45.287Z,67.77
2019-05-11T06:28:49.326Z,67.67
2019-05-11T06:44:02.008Z,68.73
2019-05-11T06:59:05.262Z,67.47
2019-05-11T07:14:20.677Z,66.24
2019-05-11T07:29:19.057Z,65.10
2019-05-11T07:44:35.922Z,63.63
2019-05-11T07:59:35.120Z,61.59
2019-05-11T08:14:56.509Z,58.56
2019-05-11T08:29:51.042Z,56.96
2019-05-11T08:45:15.344Z,53.80
2019-05-11T09:00:09.482Z,50.82
2019-05-11T09:15:31.558Z,44.01
2019-05-11T09:30:25.488Z,44.01
2019-05-11T09:45:45.774Z,42.53
2019-05-11T10:00:43.677Z,40.60
2019-05-11T10:16:03.602Z,37.26
2019-05-11T10:31:00.127Z,40.55
2019-05-11T10:46:18.737Z,39.44
2019-05-11T11:01:15.012Z,36.48
2019-05-11T11:16:35.773Z,37.42
2019-05-11T11:31:29.899Z,36.37
2019-05-11T11:46:50.386Z,34.62
2019-05-11T12:01:48.539Z,33.27
2019-05-11T12:17:04.987Z,31.48
2019-05-11T12:32:05.007Z,31.81
2019-05-11T12:47:22.212Z,34.33
2019-05-11T13:02:22.560Z,35.12
2019-05-11T13:17:37.033Z,36.74
2019-05-11T13:32:39.899Z,33.67
2019-05-11T13:47:53.761Z,31.68
2019-05-11T14:02:58.586Z,34.25
2019-05-11T14:18:08.711Z,36.90
2019-05-11T14:33:14.620Z,39.99
2019-05-11T14:48:27.071Z,36.20
2019-05-11T15:03:32.861Z,33.45
2019-05-11T15:18:42.202Z,34.46
2019-05-11T15:33:49.001Z,34.49
2019-05-11T15:49:02.231Z,33.39
2019-05-11T16:04:05.962Z,33.73
2019-05-11T16:19:15.135Z,34.00
2019-05-11T16:34:21.612Z,34.21
2019-05-11T16:49:32.500Z,35.44
2019-05-11T17:04:40.047Z,37.50
2019-05-11T17:19:51.226Z,41.68
2019-05-11T17:34:59.386Z,43.36
2019-05-11T17:50:09.557Z,44.72
2019-05-11T18:05:17.840Z,47.46
2019-05-11T18:20:25.014Z,49.11
2019-05-11T18:35:31.924Z,50.00
2019-05-11T18:50:38.699Z,51.69
2019-05-11T19:05:48.246Z,51.51
2019-05-11T19:20:58.319Z,53.38
2019-05-11T19:36:07.783Z,53.86
2019-05-11T19:51:18.661Z,56.02
2019-05-11T20:06:28.076Z,57.10
2019-05-11T20:21:39.048Z,57.74
2019-05-11T20:36:58.528Z,60.23
2019-05-11T20:52:10.183Z,60.96
2019-05-11T21:07:19.840Z,61.78
2019-05-11T21:22:28.700Z,62.77
2019-05-11T21:37:39.239Z,62.89
2019-05-11T21:52:48.428Z,63.75
2019-05-11T22:07:58.273Z,64.56
2019-05-11T22:23:09.121Z,64.43
2019-05-11T22:38:15.724Z,64.81
2019-05-11T22:53:22.710Z,64.64
2019-05-11T23:08:29.717Z,65.05
2019-05-11T23:23:36.621Z,65.48
2019-05-11T23:38:43.319Z,65.58
2019-05-11T23:53:51.100Z,65.25
